createdAt,value
2023-01-13T00:00:59.209Z,10.25
2023-01-13T00:01:58.821Z,10.24
2023-01-13T00:02:59.008Z,10.25
2023-01-13T00:03:58.827Z,10.25
2023-01-13T00:04:58.853Z,10.25
2023-01-13T00:05:58.846Z,10.24
2023-01-13T00:06:58.839Z,10.22
2023-01-13T00:07:58.742Z,10.22
2023-01-13T00:08:58.776Z,10.24
2023-01-13T00:09:58.726Z,10.21
2023-01-13T00:10:58.764Z,10.22
2023-01-13T00:11:58.775Z,10.22
2023-01-13T00:12:58.772Z,10.25
2023-01-13T00:13:58.618Z,10.24
2023-01-13T00:14:58.596Z,10.24
2023-01-13T00:15:58.751Z,10.24
2023-01-13T00:16:58.797Z,10.25
2023-01-13T00:17:59.431Z,10.25
2023-01-13T00:18:58.637Z,10.25
2023-01-13T00:19:58.956Z,10.24
2023-01-13T00:20:58.936Z,10.24
2023-01-13T00:21:58.640Z,10.24
2023-01-13T00:22:58.752Z,10.24
2023-01-13T00:23:58.906Z,10.22
2023-01-13T00:24:58.572Z,10.22
2023-01-13T00:25:58.981Z,10.22
2023-01-13T00:26:58.702Z,10.22
2023-01-13T00:27:58.570Z,10.21
2023-01-13T00:28:58.490Z,10.24
2023-01-13T00:29:58.406Z,10.22
2023-01-13T00:30:58.665Z,10.19
2023-01-13T00:31:58.602Z,10.19
2023-01-13T00:32:58.446Z,10.19
2023-01-13T00:33:58.625Z,10.19
2023-01-13T00:34:58.355Z,10.19
2023-01-13T00:35:58.330Z,10.18
2023-01-13T00:36:58.472Z,10.18
2023-01-13T00:37:58.987Z,10.18
2023-01-13T00:38:58.342Z,10.18
2023-01-13T00:39:58.365Z,10.18
2023-01-13T00:40:58.205Z,10.17
2023-01-13T00:41:58.360Z,10.17
2023-01-13T00:42:58.309Z,10.17
2023-01-13T00:43:58.279Z,10.01
2023-01-13T00:44:58.411Z,9.85
2023-01-13T00:45:58.344Z,9.67
2023-01-13T00:46:58.748Z,9.49
2023-01-13T00:47:58.958Z,9.31
2023-01-13T00:48:58.217Z,9.18
2023-01-13T00:49:58.243Z,9.10
2023-01-13T00:50:58.061Z,9.02
2023-01-13T00:51:58.236Z,8.99
2023-01-13T00:52:58.272Z,8.96
2023-01-13T00:53:58.152Z,8.91
2023-01-13T00:54:58.153Z,8.91
2023-01-13T00:55:58.154Z,8.88
2023-01-13T00:56:58.093Z,8.87
2023-01-13T00:57:58.100Z,8.86
2023-01-13T00:58:58.114Z,8.86
2023-01-13T00:59:58.084Z,8.86
2023-01-13T01:00:58.123Z,8.84
2023-01-13T01:01:58.125Z,8.83
2023-01-13T01:02:58.011Z,8.81
2023-01-13T01:03:57.908Z,8.81
2023-01-13T01:04:58.027Z,8.81
2023-01-13T01:05:57.935Z,8.81
2023-01-13T01:06:57.926Z,8.81
2023-01-13T01:07:57.869Z,8.81
2023-01-13T01:08:58.006Z,8.79
2023-01-13T01:09:58.672Z,8.81
2023-01-13T01:10:57.956Z,8.79
2023-01-13T01:11:58.005Z,8.79
2023-01-13T01:12:57.982Z,8.84
2023-01-13T01:13:57.821Z,8.84
2023-01-13T01:14:57.904Z,8.86
2023-01-13T01:15:57.838Z,8.87
2023-01-13T01:16:57.833Z,8.87
2023-01-13T01:17:57.825Z,8.88
2023-01-13T01:18:57.721Z,8.88
2023-01-13T01:19:57.740Z,8.88
2023-01-13T01:20:57.857Z,8.90
2023-01-13T01:21:57.730Z,8.88
2023-01-13T01:22:57.741Z,8.88
2023-01-13T01:23:57.682Z,8.88
2023-01-13T01:24:57.670Z,8.88
2023-01-13T01:25:57.572Z,8.88
2023-01-13T01:26:57.674Z,8.88
2023-01-13T01:27:57.684Z,8.90
2023-01-13T01:28:57.594Z,8.90
2023-01-13T01:29:57.606Z,8.93
2023-01-13T01:30:57.613Z,8.93
2023-01-13T01:31:57.622Z,8.93
2023-01-13T01:32:57.718Z,8.93
2023-01-13T01:33:57.522Z,8.90
2023-01-13T01:34:57.451Z,8.91
2023-01-13T01:35:57.534Z,8.88
2023-01-13T01:36:57.566Z,8.88
2023-01-13T01:37:57.451Z,8.87
2023-01-13T01:38:57.550Z,8.86
2023-01-13T01:39:57.568Z,8.84
2023-01-13T01:40:57.583Z,8.83
2023-01-13T01:41:57.488Z,8.83
2023-01-13T01:42:57.582Z,8.83
2023-01-13T01:43:57.616Z,8.81
2023-01-13T01:44:57.410Z,8.83
2023-01-13T01:45:57.484Z,8.81
2023-01-13T01:46:57.459Z,8.83
2023-01-13T01:47:57.430Z,8.83
2023-01-13T01:48:57.403Z,8.83
2023-01-13T01:49:57.524Z,8.83
2023-01-13T01:50:57.934Z,8.81
2023-01-13T01:51:57.441Z,8.81
2023-01-13T01:52:57.364Z,8.78
2023-01-13T01:53:57.260Z,8.78
2023-01-13T01:54:57.566Z,8.76
2023-01-13T01:55:57.681Z,8.78
2023-01-13T01:56:57.385Z,8.78
2023-01-13T01:57:57.290Z,8.79
2023-01-13T01:58:57.269Z,8.79
2023-01-13T01:59:57.524Z,8.79
2023-01-13T02:00:57.347Z,8.78
2023-01-13T02:01:58.216Z,8.78
2023-01-13T02:02:57.243Z,8.76
2023-01-13T02:03:57.304Z,8.75
2023-01-13T02:04:57.241Z,8.75
2023-01-13T02:05:57.139Z,8.73
2023-01-13T02:06:57.224Z,8.72
2023-01-13T02:07:57.246Z,8.69
2023-01-13T02:08:57.157Z,8.65
2023-01-13T02:09:57.196Z,8.63
2023-01-13T02:10:57.070Z,8.58
2023-01-13T02:11:57.063Z,8.53
2023-01-13T02:12:57.493Z,8.48
2023-01-13T02:13:57.090Z,8.50
2023-01-13T02:14:57.098Z,8.48
2023-01-13T02:15:57.177Z,8.47
2023-01-13T02:16:58.493Z,8.48
2023-01-13T02:17:58.293Z,8.47
2023-01-13T02:18:57.031Z,8.48
2023-01-13T02:19:58.361Z,8.51
2023-01-13T02:20:57.034Z,8.53
2023-01-13T02:21:56.847Z,8.55
2023-01-13T02:22:57.076Z,8.57
2023-01-13T02:23:56.924Z,8.58
2023-01-13T02:24:58.328Z,8.60
2023-01-13T02:25:56.975Z,8.62
2023-01-13T02:26:56.963Z,8.63
2023-01-13T02:27:56.885Z,8.65
2023-01-13T02:28:56.877Z,8.65
2023-01-13T02:29:56.882Z,8.66
2023-01-13T02:30:56.810Z,8.68
2023-01-13T02:31:56.834Z,8.68
2023-01-13T02:32:56.952Z,8.69
2023-01-13T02:33:56.924Z,8.68
2023-01-13T02:34:56.909Z,8.69
2023-01-13T02:35:56.735Z,8.71
2023-01-13T02:36:56.730Z,8.72
2023-01-13T02:37:56.738Z,8.75
2023-01-13T02:38:56.744Z,8.75
2023-01-13T02:39:56.745Z,8.75
2023-01-13T02:40:56.705Z,8.76
2023-01-13T02:41:56.658Z,8.75
2023-01-13T02:42:56.668Z,8.76
2023-01-13T02:43:56.600Z,8.75
2023-01-13T02:44:56.597Z,8.75
2023-01-13T02:45:56.785Z,8.71
2023-01-13T02:46:56.524Z,8.66
2023-01-13T02:47:56.944Z,8.62
2023-01-13T02:48:56.712Z,8.58
2023-01-13T02:49:56.528Z,8.55
2023-01-13T02:50:56.618Z,8.53
2023-01-13T02:51:56.535Z,8.50
2023-01-13T02:52:56.670Z,8.48
2023-01-13T02:53:56.470Z,8.42
2023-01-13T02:54:56.362Z,8.37
2023-01-13T02:55:56.470Z,8.36
2023-01-13T02:56:56.355Z,8.33
2023-01-13T02:57:56.461Z,8.30
2023-01-13T02:58:56.497Z,8.30
2023-01-13T02:59:56.371Z,8.26
2023-01-13T03:00:56.777Z,8.22
2023-01-13T03:01:56.554Z,8.21
2023-01-13T03:02:56.625Z,8.20
2023-01-13T03:03:56.755Z,8.18
2023-01-13T03:04:56.435Z,8.17
2023-01-13T03:05:56.630Z,8.17
2023-01-13T03:06:56.472Z,8.17
2023-01-13T03:07:56.233Z,8.17
2023-01-13T03:08:56.262Z,8.18
2023-01-13T03:09:56.179Z,8.20
2023-01-13T03:10:56.262Z,8.21
2023-01-13T03:11:56.281Z,8.22
2023-01-13T03:12:56.478Z,8.25
2023-01-13T03:13:56.279Z,8.25
2023-01-13T03:14:56.401Z,8.25
2023-01-13T03:15:56.093Z,8.22
2023-01-13T03:16:56.105Z,8.21
2023-01-13T03:17:56.145Z,8.18
2023-01-13T03:18:56.203Z,8.15
2023-01-13T03:19:56.148Z,8.15
2023-01-13T03:20:56.025Z,8.12
2023-01-13T03:21:56.129Z,8.11
2023-01-13T03:22:56.050Z,8.10
2023-01-13T03:23:55.949Z,8.10
2023-01-13T03:24:55.985Z,8.07
2023-01-13T03:25:55.954Z,8.08
2023-01-13T03:26:56.085Z,8.07
2023-01-13T03:27:55.990Z,8.10
2023-01-13T03:28:55.968Z,8.08
2023-01-13T03:29:55.876Z,8.04
2023-01-13T03:30:55.906Z,8.03
2023-01-13T03:31:55.892Z,8.00
2023-01-13T03:32:55.922Z,8.00
2023-01-13T03:33:55.805Z,7.97
2023-01-13T03:34:55.948Z,7.94
2023-01-13T03:35:55.743Z,7.92
2023-01-13T03:36:55.728Z,7.90
2023-01-13T03:37:56.640Z,7.92
2023-01-13T03:38:55.855Z,7.92
2023-01-13T03:39:55.871Z,7.93
2023-01-13T03:40:55.866Z,7.92
2023-01-13T03:41:55.766Z,7.90
2023-01-13T03:42:55.881Z,7.89
2023-01-13T03:43:55.678Z,7.87
2023-01-13T03:44:55.793Z,7.84
2023-01-13T03:45:56.043Z,7.82
2023-01-13T03:46:55.780Z,7.81
2023-01-13T03:47:55.701Z,7.78
2023-01-13T03:48:56.552Z,7.75
2023-01-13T03:49:56.040Z,7.75
2023-01-13T03:50:55.633Z,7.74
2023-01-13T03:51:55.632Z,7.71
2023-01-13T03:52:55.652Z,7.67
2023-01-13T03:53:55.647Z,7.66
2023-01-13T03:54:55.746Z,7.66
2023-01-13T03:55:55.960Z,7.63
2023-01-13T03:56:55.571Z,7.60
2023-01-13T03:57:55.632Z,7.59
2023-01-13T03:58:55.491Z,7.56
2023-01-13T03:59:55.497Z,7.52
2023-01-13T04:00:55.711Z,7.47
2023-01-13T04:01:55.661Z,7.42
2023-01-13T04:02:56.025Z,7.42
2023-01-13T04:03:55.561Z,7.44
2023-01-13T04:04:55.537Z,7.41
2023-01-13T04:05:55.913Z,7.41
2023-01-13T04:06:55.628Z,7.38
2023-01-13T04:07:55.535Z,7.34
2023-01-13T04:08:55.563Z,7.32
2023-01-13T04:09:55.733Z,7.29
2023-01-13T04:10:55.383Z,7.26
2023-01-13T04:11:55.478Z,7.23
2023-01-13T04:12:55.395Z,7.20
2023-01-13T04:13:55.402Z,7.16
2023-01-13T04:14:55.400Z,7.09
2023-01-13T04:15:55.416Z,7.08
2023-01-13T04:16:55.316Z,7.05
2023-01-13T04:17:55.333Z,7.07
2023-01-13T04:18:55.343Z,7.05
2023-01-13T04:19:55.217Z,7.07
2023-01-13T04:20:55.665Z,7.07
2023-01-13T04:21:55.335Z,7.04
2023-01-13T04:22:55.226Z,7.02
2023-01-13T04:23:55.300Z,6.99
2023-01-13T04:24:55.160Z,6.97
2023-01-13T04:25:55.770Z,6.94
2023-01-13T04:26:55.069Z,6.95
2023-01-13T04:27:55.159Z,6.98
2023-01-13T04:28:55.371Z,6.98
2023-01-13T04:29:55.189Z,6.98
2023-01-13T04:30:55.128Z,6.94
2023-01-13T04:31:55.231Z,6.89
2023-01-13T04:32:55.117Z,6.89
2023-01-13T04:33:55.103Z,6.87
2023-01-13T04:34:55.104Z,6.81
2023-01-13T04:35:55.026Z,6.77
2023-01-13T04:36:55.101Z,6.73
2023-01-13T04:37:55.025Z,6.71
2023-01-13T04:38:55.038Z,6.73
2023-01-13T04:39:54.953Z,6.83
2023-01-13T04:40:54.969Z,6.84
2023-01-13T04:41:54.947Z,6.87
2023-01-13T04:42:55.792Z,6.86
2023-01-13T04:43:54.869Z,6.87
2023-01-13T04:44:55.400Z,6.86
2023-01-13T04:45:55.201Z,6.83
2023-01-13T04:46:54.889Z,6.86
2023-01-13T04:47:54.830Z,6.84
2023-01-13T04:48:54.823Z,6.81
2023-01-13T04:49:54.824Z,6.80
2023-01-13T04:50:54.929Z,6.79
2023-01-13T04:51:54.813Z,6.77
2023-01-13T04:52:54.975Z,6.72
2023-01-13T04:53:54.742Z,6.69
2023-01-13T04:54:54.851Z,6.65
2023-01-13T04:55:54.767Z,6.65
2023-01-13T04:56:54.759Z,6.65
2023-01-13T04:57:54.690Z,6.66
2023-01-13T04:58:54.687Z,6.62
2023-01-13T04:59:54.812Z,6.58
2023-01-13T05:00:54.718Z,6.58
2023-01-13T05:01:55.799Z,6.54
2023-01-13T05:02:54.713Z,6.54
2023-01-13T05:03:54.697Z,6.54
2023-01-13T05:04:54.743Z,6.53
2023-01-13T05:05:54.543Z,6.51
2023-01-13T05:06:54.623Z,6.48
2023-01-13T05:07:54.735Z,6.48
2023-01-13T05:08:54.635Z,6.50
2023-01-13T05:09:54.546Z,6.50
2023-01-13T05:10:54.757Z,6.53
2023-01-13T05:11:54.668Z,6.61
2023-01-13T05:12:54.815Z,6.65
2023-01-13T05:13:54.672Z,6.65
2023-01-13T05:14:54.682Z,6.66
2023-01-13T05:15:54.508Z,6.71
2023-01-13T05:16:54.400Z,6.71
2023-01-13T05:17:54.967Z,6.71
2023-01-13T05:18:54.453Z,6.71
2023-01-13T05:19:54.622Z,6.76
2023-01-13T05:20:54.541Z,6.73
2023-01-13T05:21:54.423Z,6.69
2023-01-13T05:22:54.427Z,6.68
2023-01-13T05:23:54.356Z,6.65
2023-01-13T05:24:54.454Z,6.62
2023-01-13T05:25:54.359Z,6.61
2023-01-13T05:26:54.271Z,6.61
2023-01-13T05:27:54.465Z,6.62
2023-01-13T05:28:54.868Z,6.63
2023-01-13T05:29:54.375Z,6.63
2023-01-13T05:30:54.514Z,6.62
2023-01-13T05:31:54.327Z,6.56
2023-01-13T05:32:55.249Z,6.58
2023-01-13T05:33:54.212Z,6.54
2023-01-13T05:34:54.217Z,6.53
2023-01-13T05:35:54.310Z,6.53
2023-01-13T05:36:54.164Z,6.51
2023-01-13T05:37:54.127Z,6.51
2023-01-13T05:38:54.237Z,6.53
2023-01-13T05:39:54.054Z,6.54
2023-01-13T05:40:54.050Z,6.61
2023-01-13T05:41:54.066Z,6.63
2023-01-13T05:42:54.057Z,6.65
2023-01-13T05:43:55.007Z,6.69
2023-01-13T05:44:54.082Z,6.68
2023-01-13T05:45:54.081Z,6.68
2023-01-13T05:46:54.159Z,6.66
2023-01-13T05:47:53.984Z,6.61
2023-01-13T05:48:54.427Z,6.58
2023-01-13T05:49:54.004Z,6.56
2023-01-13T05:50:53.924Z,6.61
2023-01-13T05:51:53.930Z,6.62
2023-01-13T05:52:54.030Z,6.62
2023-01-13T05:53:53.935Z,6.63
2023-01-13T05:54:53.958Z,6.62
2023-01-13T05:55:53.988Z,6.62
2023-01-13T05:56:53.862Z,6.61
2023-01-13T05:57:53.881Z,6.58
2023-01-13T05:58:54.216Z,6.58
2023-01-13T05:59:53.913Z,6.58
2023-01-13T06:00:53.937Z,6.56
2023-01-13T06:01:53.792Z,6.58
2023-01-13T06:02:53.850Z,6.58
2023-01-13T06:03:53.815Z,6.59
2023-01-13T06:04:53.938Z,6.63
2023-01-13T06:05:53.807Z,6.66
2023-01-13T06:06:53.726Z,6.68
2023-01-13T06:07:53.731Z,6.71
2023-01-13T06:08:54.174Z,6.72
2023-01-13T06:09:53.762Z,6.72
2023-01-13T06:10:53.660Z,6.76
2023-01-13T06:11:53.670Z,6.76
2023-01-13T06:12:53.651Z,6.77
2023-01-13T06:13:53.760Z,6.79
2023-01-13T06:14:53.679Z,6.83
2023-01-13T06:15:53.665Z,6.83
2023-01-13T06:16:53.606Z,6.87
2023-01-13T06:17:53.700Z,6.87
2023-01-13T06:18:53.622Z,6.87
2023-01-13T06:19:53.647Z,6.84
2023-01-13T06:20:53.617Z,6.83
2023-01-13T06:21:53.734Z,6.80
2023-01-13T06:22:53.767Z,6.79
2023-01-13T06:23:53.527Z,6.77
2023-01-13T06:24:53.436Z,6.73
2023-01-13T06:25:53.556Z,6.71
2023-01-13T06:26:53.657Z,6.68
2023-01-13T06:27:54.411Z,6.68
2023-01-13T06:28:53.386Z,6.66
2023-01-13T06:29:53.655Z,6.65
2023-01-13T06:30:53.377Z,6.63
2023-01-13T06:31:53.522Z,6.62
2023-01-13T06:32:53.408Z,6.63
2023-01-13T06:33:53.427Z,6.63
2023-01-13T06:34:53.521Z,6.62
2023-01-13T06:35:53.608Z,6.68
2023-01-13T06:36:53.322Z,6.68
2023-01-13T06:37:53.460Z,6.71
2023-01-13T06:38:53.231Z,6.77
2023-01-13T06:39:53.455Z,6.79
2023-01-13T06:40:53.239Z,6.80
2023-01-13T06:41:53.381Z,6.80
2023-01-13T06:42:53.265Z,6.76
2023-01-13T06:43:53.210Z,6.73
2023-01-13T06:44:53.161Z,6.71
2023-01-13T06:45:53.297Z,6.68
2023-01-13T06:46:53.331Z,6.72
2023-01-13T06:47:53.186Z,6.72
2023-01-13T06:48:53.201Z,6.76
2023-01-13T06:49:53.194Z,6.77
2023-01-13T06:50:53.204Z,6.79
2023-01-13T06:51:53.214Z,6.81
2023-01-13T06:52:53.142Z,6.80
2023-01-13T06:53:53.231Z,6.84
2023-01-13T06:54:53.131Z,6.84
2023-01-13T06:55:53.188Z,6.84
2023-01-13T06:56:53.055Z,6.84
2023-01-13T06:57:53.052Z,6.80
2023-01-13T06:58:52.965Z,6.79
2023-01-13T06:59:53.169Z,6.79
2023-01-13T07:00:53.159Z,6.80
2023-01-13T07:01:54.099Z,6.81
2023-01-13T07:02:53.088Z,6.81
2023-01-13T07:03:53.012Z,6.79
2023-01-13T07:04:53.000Z,6.77
2023-01-13T07:05:53.001Z,6.79
2023-01-13T07:06:52.954Z,6.81
2023-01-13T07:07:52.930Z,6.81
2023-01-13T07:08:52.970Z,6.83
2023-01-13T07:09:52.843Z,6.83
2023-01-13T07:10:53.042Z,6.83
2023-01-13T07:11:52.873Z,6.83
2023-01-13T07:12:52.972Z,6.83
2023-01-13T07:13:52.867Z,6.84
2023-01-13T07:14:52.673Z,6.87
2023-01-13T07:15:52.875Z,6.91
2023-01-13T07:16:52.693Z,6.94
2023-01-13T07:17:52.788Z,6.91
2023-01-13T07:18:52.811Z,6.89
2023-01-13T07:19:52.811Z,6.91
2023-01-13T07:20:52.598Z,6.90
2023-01-13T07:21:52.957Z,6.89
2023-01-13T07:22:52.625Z,6.90
2023-01-13T07:23:52.848Z,6.91
2023-01-13T07:24:52.672Z,6.94
2023-01-13T07:25:52.639Z,6.91
2023-01-13T07:26:52.676Z,6.89
2023-01-13T07:27:52.556Z,6.84
2023-01-13T07:28:52.649Z,6.86
2023-01-13T07:29:53.294Z,6.84
2023-01-13T07:30:52.591Z,6.83
2023-01-13T07:31:52.669Z,6.84
2023-01-13T07:32:52.409Z,6.84
2023-01-13T07:33:52.408Z,6.83
2023-01-13T07:34:52.511Z,6.84
2023-01-13T07:35:54.248Z,6.87
2023-01-13T07:36:53.332Z,6.91
2023-01-13T07:37:52.848Z,6.99
2023-01-13T07:38:54.695Z,7.04
2023-01-13T07:39:52.452Z,7.04
2023-01-13T07:40:52.532Z,7.05
2023-01-13T07:41:52.507Z,7.07
2023-01-13T07:42:52.270Z,7.12
2023-01-13T07:43:52.374Z,7.13
2023-01-13T07:44:53.184Z,7.13
2023-01-13T07:45:52.567Z,7.13
2023-01-13T07:46:52.277Z,7.09
2023-01-13T07:47:52.400Z,7.09
2023-01-13T07:48:52.199Z,7.08
2023-01-13T07:49:52.329Z,7.08
2023-01-13T07:50:52.220Z,7.07
2023-01-13T07:51:52.210Z,7.05
2023-01-13T07:52:52.317Z,7.08
2023-01-13T07:53:52.144Z,7.07
2023-01-13T07:54:52.340Z,7.05
2023-01-13T07:55:53.069Z,7.01
2023-01-13T07:56:52.236Z,7.01
2023-01-13T07:57:52.146Z,6.99
2023-01-13T07:58:52.098Z,6.99
2023-01-13T07:59:52.173Z,7.02
2023-01-13T08:00:52.361Z,7.02
2023-01-13T08:01:52.268Z,7.07
2023-01-13T08:02:52.233Z,7.12
2023-01-13T08:03:52.100Z,7.08
2023-01-13T08:04:51.990Z,7.08
2023-01-13T08:05:52.748Z,7.07
2023-01-13T08:06:52.015Z,7.02
2023-01-13T08:07:52.009Z,7.01
2023-01-13T08:08:51.947Z,7.01
2023-01-13T08:09:52.036Z,7.02
2023-01-13T08:10:52.141Z,7.05
2023-01-13T08:11:51.956Z,7.07
2023-01-13T08:12:56.325Z,7.05
2023-01-13T08:13:52.891Z,7.04
2023-01-13T08:14:52.072Z,7.05
2023-01-13T08:15:52.170Z,7.02
2023-01-13T08:16:51.946Z,7.02
2023-01-13T08:17:51.921Z,7.12
2023-01-13T08:18:51.910Z,7.16
2023-01-13T08:19:51.906Z,7.22
2023-01-13T08:20:51.809Z,7.26
2023-01-13T08:21:51.918Z,7.34
2023-01-13T08:22:51.815Z,7.40
2023-01-13T08:23:52.158Z,7.45
2023-01-13T08:24:51.844Z,7.49
2023-01-13T08:25:51.847Z,7.49
2023-01-13T08:26:51.889Z,7.49
2023-01-13T08:27:51.770Z,7.49
2023-01-13T08:28:51.764Z,7.50
2023-01-13T08:29:51.863Z,7.49
2023-01-13T08:30:51.824Z,7.49
2023-01-13T08:31:54.286Z,7.49
2023-01-13T08:32:51.688Z,7.49
2023-01-13T08:33:51.704Z,7.50
2023-01-13T08:34:51.692Z,7.50
2023-01-13T08:35:51.718Z,7.50
2023-01-13T08:36:51.722Z,7.56
2023-01-13T08:37:51.618Z,7.55
2023-01-13T08:38:51.663Z,7.58
2023-01-13T08:39:51.659Z,7.58
2023-01-13T08:40:51.764Z,7.53
2023-01-13T08:41:51.539Z,7.50
2023-01-13T08:42:51.470Z,7.52
2023-01-13T08:43:51.552Z,7.53
2023-01-13T08:44:51.546Z,7.56
2023-01-13T08:45:51.521Z,7.56
2023-01-13T08:46:51.583Z,7.60
2023-01-13T08:47:51.482Z,7.63
2023-01-13T08:48:51.428Z,7.71
2023-01-13T08:49:51.501Z,7.82
2023-01-13T08:50:51.526Z,7.92
2023-01-13T08:51:51.360Z,7.97
2023-01-13T08:52:51.343Z,8.00
2023-01-13T08:53:51.438Z,8.07
2023-01-13T08:54:51.468Z,8.12
2023-01-13T08:55:51.339Z,8.17
2023-01-13T08:56:51.431Z,8.21
2023-01-13T08:57:52.085Z,8.28
2023-01-13T08:58:51.462Z,8.29
2023-01-13T08:59:51.564Z,8.32
2023-01-13T09:00:51.390Z,8.33
2023-01-13T09:01:51.309Z,8.33
2023-01-13T09:02:51.287Z,8.33
2023-01-13T09:03:51.197Z,8.35
2023-01-13T09:04:51.243Z,8.35
2023-01-13T09:05:51.237Z,8.33
2023-01-13T09:06:51.338Z,8.33
2023-01-13T09:07:52.998Z,8.33
2023-01-13T09:08:52.287Z,8.35
2023-01-13T09:09:51.348Z,8.35
2023-01-13T09:10:51.142Z,8.35
2023-01-13T09:11:51.329Z,8.39
2023-01-13T09:12:51.291Z,8.42
2023-01-13T09:13:51.292Z,8.44
2023-01-13T09:14:51.167Z,8.45
2023-01-13T09:15:51.245Z,8.47
2023-01-13T09:16:51.072Z,8.45
2023-01-13T09:17:52.285Z,8.48
2023-01-13T09:18:51.093Z,8.47
2023-01-13T09:19:51.012Z,8.48
2023-01-13T09:20:51.103Z,8.48
2023-01-13T09:21:50.911Z,8.48
2023-01-13T09:22:51.857Z,8.47
2023-01-13T09:23:51.027Z,8.47
2023-01-13T09:24:51.026Z,8.40
2023-01-13T09:25:50.846Z,8.39
2023-01-13T09:26:50.870Z,8.39
2023-01-13T09:27:51.159Z,8.40
2023-01-13T09:28:50.962Z,8.45
2023-01-13T09:29:50.889Z,8.48
2023-01-13T09:30:50.838Z,8.51
2023-01-13T09:31:51.011Z,8.54
2023-01-13T09:32:51.003Z,8.57
2023-01-13T09:33:50.900Z,8.60
2023-01-13T09:34:51.017Z,8.66
2023-01-13T09:35:51.028Z,8.72
2023-01-13T09:36:50.831Z,8.76
2023-01-13T09:37:50.810Z,8.84
2023-01-13T09:38:50.930Z,8.86
2023-01-13T09:39:50.950Z,8.86
2023-01-13T09:40:50.742Z,8.86
2023-01-13T09:41:50.688Z,8.88
2023-01-13T09:42:50.951Z,8.91
2023-01-13T09:43:50.751Z,8.90
2023-01-13T09:44:50.605Z,8.88
2023-01-13T09:45:50.692Z,8.84
2023-01-13T09:46:50.686Z,8.78
2023-01-13T09:47:50.996Z,8.73
2023-01-13T09:48:50.984Z,8.68
2023-01-13T09:49:50.608Z,8.69
2023-01-13T09:50:50.609Z,8.73
2023-01-13T09:51:50.724Z,8.79
2023-01-13T09:52:50.624Z,8.88
2023-01-13T09:53:50.629Z,8.88
2023-01-13T09:54:50.533Z,8.90
2023-01-13T09:55:50.626Z,8.88
2023-01-13T09:56:50.534Z,8.90
2023-01-13T09:57:50.751Z,8.91
2023-01-13T09:58:50.768Z,8.96
2023-01-13T09:59:50.581Z,9.01
2023-01-13T10:00:50.479Z,9.06
2023-01-13T10:01:50.788Z,9.13
2023-01-13T10:02:50.604Z,9.13
2023-01-13T10:03:50.682Z,9.15
2023-01-13T10:04:50.509Z,9.15
2023-01-13T10:05:50.415Z,9.21
2023-01-13T10:06:50.517Z,9.21
2023-01-13T10:07:50.428Z,9.24
2023-01-13T10:08:50.469Z,9.28
2023-01-13T10:09:50.430Z,9.34
2023-01-13T10:10:50.430Z,9.40
2023-01-13T10:11:50.533Z,9.48
2023-01-13T10:12:50.359Z,9.58
2023-01-13T10:13:50.357Z,9.66
2023-01-13T10:14:50.593Z,9.71
2023-01-13T10:15:50.318Z,9.76
2023-01-13T10:16:50.370Z,9.81
2023-01-13T10:17:50.504Z,9.82
2023-01-13T10:18:50.308Z,9.81
2023-01-13T10:19:50.410Z,9.79
2023-01-13T10:20:50.312Z,9.78
2023-01-13T10:21:50.400Z,9.71
2023-01-13T10:22:50.432Z,9.60
2023-01-13T10:23:50.275Z,9.56
2023-01-13T10:24:50.452Z,9.50
2023-01-13T10:25:50.262Z,9.49
2023-01-13T10:26:50.442Z,9.49
2023-01-13T10:27:50.177Z,9.49
2023-01-13T10:28:50.066Z,9.48
2023-01-13T10:29:50.081Z,9.46
2023-01-13T10:30:50.207Z,9.43
2023-01-13T10:31:50.064Z,9.42
2023-01-13T10:32:50.093Z,9.45
2023-01-13T10:33:50.115Z,9.43
2023-01-13T10:34:50.119Z,9.45
2023-01-13T10:35:50.046Z,9.46
2023-01-13T10:36:50.004Z,9.46
2023-01-13T10:37:50.107Z,9.46
2023-01-13T10:38:49.927Z,9.43
2023-01-13T10:39:50.028Z,9.43
2023-01-13T10:40:49.965Z,9.42
2023-01-13T10:41:50.043Z,9.43
2023-01-13T10:42:50.151Z,9.42
2023-01-13T10:43:49.942Z,9.40
2023-01-13T10:44:49.958Z,9.38
2023-01-13T10:45:50.090Z,9.34
2023-01-13T10:46:50.189Z,9.38
2023-01-13T10:47:49.896Z,9.38
2023-01-13T10:48:49.811Z,9.39
2023-01-13T10:49:49.798Z,9.40
2023-01-13T10:50:49.839Z,9.42
2023-01-13T10:51:49.907Z,9.40
2023-01-13T10:52:49.802Z,9.39
2023-01-13T10:53:49.717Z,9.42
2023-01-13T10:54:49.816Z,9.46
2023-01-13T10:55:52.438Z,9.48
2023-01-13T10:56:49.749Z,9.49
2023-01-13T10:57:49.842Z,9.53
2023-01-13T10:58:49.756Z,9.60
2023-01-13T10:59:49.769Z,9.66
2023-01-13T11:00:50.309Z,9.68
2023-01-13T11:01:49.791Z,9.61
2023-01-13T11:02:49.804Z,9.58
2023-01-13T11:03:49.698Z,9.56
2023-01-13T11:04:49.666Z,9.53
2023-01-13T11:05:49.721Z,9.49
2023-01-13T11:06:49.628Z,9.43
2023-01-13T11:07:49.733Z,9.35
2023-01-13T11:08:49.734Z,9.31
2023-01-13T11:09:49.534Z,9.24
2023-01-13T11:10:49.835Z,9.16
2023-01-13T11:11:49.565Z,9.12
2023-01-13T11:12:51.005Z,9.06
2023-01-13T11:13:49.587Z,9.04
2023-01-13T11:14:49.461Z,9.01
2023-01-13T11:15:49.606Z,8.97
2023-01-13T11:16:53.507Z,8.93
2023-01-13T11:17:49.379Z,8.90
2023-01-13T11:18:49.601Z,8.87
2023-01-13T11:19:49.401Z,8.84
2023-01-13T11:20:49.322Z,8.79
2023-01-13T11:21:49.543Z,8.78
2023-01-13T11:22:49.428Z,8.75
2023-01-13T11:23:49.429Z,8.72
2023-01-13T11:24:50.880Z,8.69
2023-01-13T11:25:49.338Z,8.65
2023-01-13T11:26:50.071Z,8.63
2023-01-13T11:27:49.249Z,8.58
2023-01-13T11:28:49.462Z,8.55
2023-01-13T11:29:49.395Z,8.53
2023-01-13T11:30:50.866Z,8.51
2023-01-13T11:31:49.461Z,8.53
2023-01-13T11:32:49.190Z,8.50
2023-01-13T11:33:49.289Z,8.47
2023-01-13T11:34:49.299Z,8.45
2023-01-13T11:35:49.642Z,8.42
2023-01-13T11:36:49.221Z,8.39
2023-01-13T11:37:49.128Z,8.35
2023-01-13T11:38:49.219Z,8.29
2023-01-13T11:39:49.335Z,8.26
2023-01-13T11:40:49.239Z,8.22
2023-01-13T11:41:49.350Z,8.20
2023-01-13T11:42:49.061Z,8.17
2023-01-13T11:43:49.243Z,8.12
2023-01-13T11:44:49.221Z,8.07
2023-01-13T11:45:49.081Z,8.03
2023-01-13T11:46:49.200Z,8.00
2023-01-13T11:47:49.103Z,7.99
2023-01-13T11:48:49.292Z,7.94
2023-01-13T11:49:49.309Z,7.97
2023-01-13T11:50:49.019Z,8.00
2023-01-13T11:51:50.048Z,8.04
2023-01-13T11:52:49.143Z,8.03
2023-01-13T11:53:49.029Z,8.08
2023-01-13T11:54:49.066Z,8.12
2023-01-13T11:55:48.943Z,8.21
2023-01-13T11:56:49.031Z,8.26
2023-01-13T11:57:49.061Z,8.33
2023-01-13T11:58:51.187Z,8.32
2023-01-13T11:59:49.061Z,8.29
2023-01-13T12:00:48.891Z,8.29
2023-01-13T12:01:49.010Z,8.30
2023-01-13T12:02:49.256Z,8.30
2023-01-13T12:03:48.803Z,8.29
2023-01-13T12:04:49.006Z,8.32
2023-01-13T12:05:48.801Z,8.35
2023-01-13T12:06:48.821Z,8.36
2023-01-13T12:07:48.824Z,8.35
2023-01-13T12:08:48.852Z,8.33
2023-01-13T12:09:48.823Z,8.30
2023-01-13T12:10:48.856Z,8.28
2023-01-13T12:11:48.726Z,8.26
2023-01-13T12:12:48.754Z,8.26
2023-01-13T12:13:48.672Z,8.28
2023-01-13T12:14:48.805Z,8.29
2023-01-13T12:15:48.830Z,8.29
2023-01-13T12:16:48.691Z,8.32
2023-01-13T12:17:48.762Z,8.32
2023-01-13T12:18:48.786Z,8.30
2023-01-13T12:19:48.896Z,8.29
2023-01-13T12:20:48.614Z,8.29
2023-01-13T12:21:48.626Z,8.28
2023-01-13T12:22:48.713Z,8.29
2023-01-13T12:23:48.712Z,8.32
2023-01-13T12:24:49.550Z,8.33
2023-01-13T12:25:48.833Z,8.33
2023-01-13T12:26:49.555Z,8.39
2023-01-13T12:27:48.565Z,8.44
2023-01-13T12:28:48.777Z,8.47
2023-01-13T12:29:49.186Z,8.51
2023-01-13T12:30:48.501Z,8.53
2023-01-13T12:31:48.458Z,8.58
2023-01-13T12:32:48.784Z,8.62
2023-01-13T12:33:48.498Z,8.68
2023-01-13T12:34:48.910Z,8.72
2023-01-13T12:35:48.287Z,8.76
2023-01-13T12:36:48.508Z,8.86
2023-01-13T12:37:48.300Z,8.94
2023-01-13T12:38:48.229Z,9.01
2023-01-13T12:39:48.949Z,9.06
2023-01-13T12:40:48.948Z,9.05
2023-01-13T12:41:48.492Z,9.10
2023-01-13T12:42:48.141Z,9.06
2023-01-13T12:43:49.400Z,9.05
2023-01-13T12:44:48.243Z,9.05
2023-01-13T12:45:48.911Z,9.06
2023-01-13T12:46:48.164Z,9.04
2023-01-13T12:47:48.303Z,8.99
2023-01-13T12:48:49.840Z,9.04
2023-01-13T12:49:48.301Z,9.01
2023-01-13T12:50:48.116Z,8.96
2023-01-13T12:51:48.004Z,8.94
2023-01-13T12:52:48.128Z,8.90
2023-01-13T12:53:48.117Z,8.84
2023-01-13T12:54:48.154Z,8.78
2023-01-13T12:55:48.018Z,8.73
2023-01-13T12:56:48.061Z,8.69
2023-01-13T12:57:48.024Z,8.69
2023-01-13T12:58:48.151Z,8.69
2023-01-13T12:59:47.870Z,8.66
2023-01-13T13:00:47.993Z,8.65
2023-01-13T13:01:48.095Z,8.62
2023-01-13T13:02:50.208Z,8.60
2023-01-13T13:03:47.896Z,8.57
2023-01-13T13:04:48.093Z,8.57
2023-01-13T13:05:47.939Z,8.55
2023-01-13T13:06:48.067Z,8.50
2023-01-13T13:07:47.909Z,8.47
2023-01-13T13:08:48.025Z,8.42
2023-01-13T13:09:48.599Z,8.40
2023-01-13T13:10:47.918Z,8.35
2023-01-13T13:11:48.161Z,8.30
2023-01-13T13:12:47.762Z,8.30
2023-01-13T13:13:47.946Z,8.28
2023-01-13T13:14:48.240Z,8.26
2023-01-13T13:15:47.691Z,8.25
2023-01-13T13:16:47.978Z,8.25
2023-01-13T13:17:47.707Z,8.22